Time;durP1;ratioP1;P1;durP2;ratioP2;P2;SDS_P1;SDS_P2;PMS_P1;PMS_P2;Temp;Humidity;BMP_temperature;BMP_pressure;BME280_temperature;BME280_humidity;BME280_pressure;Samples;Min_cycle;Max_cycle;Signal;HPM_P1;HPM_P2
2022/05/18 00:00:09;;;;;;;;;;;18.50;99.90;;;;;;5141811;27;20043;-81
2022/05/18 00:02:35;;;;;;;7.22;2.55;;;18.40;99.90;;;;;;5104908;27;19919;-79
2022/05/18 00:05:01;;;;;;;4.75;2.50;;;18.40;99.90;;;;;;5141835;27;20411;-78
2022/05/18 00:07:27;;;;;;;;;;;18.40;99.90;;;;;;5121444;27;20047;-78
2022/05/18 00:09:53;;;;;;;6.47;2.90;;;18.30;99.90;;;;;;5134152;27;20428;-78
2022/05/18 00:12:19;;;;;;;7.18;2.70;;;18.30;99.90;;;;;;5129907;27;20067;-78
2022/05/18 00:14:45;;;;;;;4.78;2.42;;;18.30;99.90;;;;;;5131184;27;20054;-78
2022/05/18 00:17:11;;;;;;;;;;;18.30;99.90;;;;;;5111113;27;20051;-78
2022/05/18 00:19:38;;;;;;;4.90;2.33;;;18.20;99.90;;;;;;5131316;27;19931;-78
2022/05/18 00:22:10;;;;;;;5.57;2.65;;;18.20;99.90;;;;;;5136531;27;20161;-80
2022/05/18 00:24:36;;;;;;;5.95;2.85;;;18.20;99.90;;;;;;5151400;27;20066;-78
2022/05/18 00:27:03;;;;;;;6.00;2.92;;;18.20;99.90;;;;;;5149565;27;20058;-78
2022/05/18 00:29:39;;;;;;;5.93;3.08;;;18.10;99.90;;;;;;5148242;27;20050;-78
2022/05/18 00:32:05;;;;;;;5.32;2.97;;;18.10;99.90;;;;;;5151506;27;20050;-81
2022/05/18 00:34:32;;;;;;;8.20;2.95;;;18.00;99.90;;;;;;5132089;27;20134;-78
2022/05/18 00:37:05;;;;;;;6.60;3.10;;;18.00;99.90;;;;;;5129701;27;20057;-78
2022/05/18 00:39:31;;;;;;;6.45;2.60;;;18.00;99.90;;;;;;5139291;27;20058;-79
2022/05/18 00:41:58;;;;;;;;;;;17.90;99.90;;;;;;5111857;27;20043;-78
2022/05/18 00:44:40;;;;;;;5.18;2.58;;;17.90;99.90;;;;;;5111574;27;19974;-78
2022/05/18 00:47:09;;;;;;;6.47;3.03;;;17.80;99.90;;;;;;5130314;27;20043;-80
2022/05/18 00:49:35;;;;;;;6.10;2.85;;;17.80;99.90;;;;;;5112023;27;20047;-78
2022/05/18 00:52:09;;;;;;;5.68;2.78;;;17.80;99.90;;;;;;5120830;27;20419;-80
2022/05/18 00:54:36;;;;;;;5.70;2.90;;;17.70;99.90;;;;;;5130370;27;20035;-78
2022/05/18 00:57:24;;;;;;;5.50;2.80;;;17.70;99.90;;;;;;5119747;27;20141;-78
2022/05/18 00:59:56;;;;;;;4.78;2.80;;;17.70;99.90;;;;;;5128788;27;20112;-79
2022/05/18 01:02:28;;;;;;;4.13;2.50;;;17.60;99.90;;;;;;5149838;27;20034;-78
2022/05/18 01:05:04;;;;;;;7.13;3.35;;;17.60;99.90;;;;;;5117442;27;20420;-78
2022/05/18 01:07:49;;;;;;;4.90;2.67;;;17.60;99.90;;;;;;5116471;27;20069;-78
2022/05/18 01:10:15;;;;;;;6.05;2.72;;;17.50;99.90;;;;;;5122374;27;20042;-78
2022/05/18 01:12:41;;;;;;;;;;;17.50;99.90;;;;;;5129349;27;20054;-78
2022/05/18 01:15:25;;;;;;;4.88;2.80;;;17.50;99.90;;;;;;5112083;27;19928;-78
2022/05/18 01:18:01;;;;;;;4.72;2.78;;;17.50;99.90;;;;;;5143096;27;20158;-78
2022/05/18 01:20:32;;;;;;;6.63;3.00;;;17.40;99.90;;;;;;5150462;27;20055;-79
2022/05/18 01:23:20;;;;;;;11.25;3.20;;;17.40;99.90;;;;;;5130446;27;20035;-78
2022/05/18 01:26:11;;;;;;;8.05;3.03;;;17.40;99.90;;;;;;5111003;28;20147;-78
2022/05/18 01:28:59;;;;;;;7.93;3.10;;;17.40;99.90;;;;;;5109417;28;20056;-78
2022/05/18 01:31:55;;;;;;;7.22;2.85;;;17.40;99.90;;;;;;5142249;27;20565;-78
2022/05/18 01:34:42;;;;;;;5.63;3.08;;;17.30;99.90;;;;;;5110783;28;20126;-79
2022/05/18 01:37:10;;;;;;;5.63;3.08;;;17.30;99.90;;;;;;5105631;28;20452;-78
2022/05/18 01:39:41;;;;;;;7.40;2.75;;;17.20;99.90;;;;;;5125770;27;20066;-79
2022/05/18 01:42:28;;;;;;;7.05;3.13;;;17.20;99.90;;;;;;5110536;28;20479;-78
2022/05/18 01:44:58;;;;;;;6.85;3.33;;;17.20;99.90;;;;;;5131370;27;20050;-78
2022/05/18 01:47:55;;;;;;;5.47;3.00;;;17.10;99.90;;;;;;5133485;27;20129;-78
2022/05/18 01:50:28;;;;;;;7.15;3.53;;;17.10;99.90;;;;;;5127581;27;20055;-78
2022/05/18 01:52:54;;;;;;;6.55;3.30;;;17.10;99.90;;;;;;5099492;27;20507;-79
2022/05/18 01:55:19;;;;;;;5.90;3.20;;;17.00;99.90;;;;;;5131024;27;20055;-78
2022/05/18 01:58:08;;;;;;;7.32;2.97;;;17.00;99.90;;;;;;5136951;27;20103;-77
2022/05/18 02:00:51;;;;;;;5.40;3.03;;;17.00;99.90;;;;;;5128533;27;20063;-79
2022/05/18 02:03:18;;;;;;;9.25;3.05;;;17.00;99.90;;;;;;5143979;27;20433;-78
2022/05/18 02:05:44;;;;;;;8.98;3.17;;;16.90;99.90;;;;;;5117434;27;20107;-78
2022/05/18 02:08:16;;;;;;;4.95;2.80;;;16.80;99.90;;;;;;5140856;27;20079;-79
2022/05/18 02:10:44;;;;;;;;;;;16.90;99.90;;;;;;5153362;27;20046;-79
2022/05/18 02:13:21;;;;;;;7.00;2.90;;;16.90;99.90;;;;;;5153703;27;19998;-78
2022/05/18 02:15:54;;;;;;;6.72;3.45;;;16.80;99.90;;;;;;5145368;27;20127;-78
2022/05/18 02:18:35;;;;;;;7.18;2.97;;;16.90;99.90;;;;;;5115959;27;20076;-78
2022/05/18 02:21:03;;;;;;;5.05;2.85;;;16.80;99.90;;;;;;5117018;27;20104;-78
2022/05/18 02:23:29;;;;;;;5.05;2.63;;;16.80;99.90;;;;;;5091152;27;20065;-78
2022/05/18 02:25:55;;;;;;;5.35;2.88;;;16.80;99.90;;;;;;5132687;27;20055;-78
2022/05/18 02:28:22;;;;;;;;;;;16.70;99.90;;;;;;5133230;27;20085;-78
2022/05/18 02:31:04;;;;;;;7.80;3.42;;;16.70;99.90;;;;;;5110659;28;20295;-78
2022/05/18 02:33:34;;;;;;;8.02;3.03;;;16.70;99.90;;;;;;5134365;27;20047;-79
2022/05/18 02:36:24;;;;;;;6.05;2.95;;;16.70;99.90;;;;;;5147901;27;20791;-78
2022/05/18 02:39:08;;;;;;;6.45;3.50;;;16.70;99.90;;;;;;5100716;27;20149;-79
2022/05/18 02:41:36;;;;;;;5.82;3.05;;;16.60;99.90;;;;;;5087902;28;20054;-78
2022/05/18 02:44:26;;;;;;;7.65;3.10;;;16.60;99.90;;;;;;5086369;27;20430;-78
2022/05/18 02:47:03;;;;;;;5.70;3.13;;;16.60;99.90;;;;;;5112070;27;20059;-78
2022/05/18 02:49:37;;;;;;;4.85;3.08;;;16.50;99.90;;;;;;5111978;28;20047;-78
2022/05/18 02:52:21;;;;;;;;;;;16.50;99.90;;;;;;5072864;27;20051;-78
2022/05/18 02:58:12;;;;;;;7.40;3.80;;;16.40;99.90;;;;;;5128762;27;20050;-79
2022/05/18 03:00:39;;;;;;;5.57;3.00;;;16.40;99.90;;;;;;5115178;27;20069;-78
2022/05/18 03:03:12;;;;;;;6.47;3.25;;;16.30;99.90;;;;;;5106875;27;20062;-78
2022/05/18 03:05:53;;;;;;;6.28;2.97;;;16.30;99.90;;;;;;5127518;27;20042;-78
2022/05/18 03:08:51;;;;;;;5.53;3.10;;;16.30;99.90;;;;;;5130536;27;20385;-79
2022/05/18 03:11:29;;;;;;;5.28;3.03;;;16.20;99.90;;;;;;5131337;27;20051;-78
2022/05/18 03:13:59;;;;;;;6.53;3.25;;;16.20;99.90;;;;;;5112899;27;20137;-79
2022/05/18 03:16:50;;;;;;;8.75;3.30;;;16.10;99.90;;;;;;5105734;27;20070;-80
2022/05/18 03:25:22;;;;;;;9.02;3.50;;;16.10;99.90;;;;;;5136489;27;20530;-82
2022/05/18 03:28:11;;;;;;;6.25;3.42;;;16.10;99.90;;;;;;5150868;27;20099;-79
2022/05/18 03:30:56;;;;;;;6.63;3.40;;;16.00;99.90;;;;;;5093593;27;20141;-79
2022/05/18 03:39:59;;;;;;;;;;;15.80;99.90;;;;;;5072559;28;20053;-79
2022/05/18 03:42:40;;;;;;;5.82;3.22;;;15.80;99.90;;;;;;5066070;28;20480;-79
2022/05/18 03:45:10;;;;;;;6.93;3.78;;;15.80;99.90;;;;;;5051880;28;20064;-79
2022/05/18 03:48:03;;;;;;;7.20;3.33;;;15.80;99.90;;;;;;5078070;28;20925;-80
2022/05/18 03:50:37;;;;;;;6.50;3.37;;;15.80;99.90;;;;;;5062371;27;20086;-78
2022/05/18 03:53:19;;;;;;;6.15;3.25;;;15.80;99.90;;;;;;5133922;27;20054;-79
2022/05/18 03:59:02;;;;;;;6.63;3.67;;;15.70;99.90;;;;;;5147444;27;20050;-79
2022/05/18 04:01:36;;;;;;;7.95;3.80;;;15.70;99.90;;;;;;5112364;27;20490;-80
2022/05/18 04:04:36;;;;;;;8.23;3.50;;;15.60;99.90;;;;;;5109246;27;20084;-80
2022/05/18 04:07:04;;;;;;;6.05;3.40;;;15.60;99.90;;;;;;5141295;27;20046;-79
2022/05/18 04:09:48;;;;;;;7.80;3.45;;;15.50;99.90;;;;;;5117267;27;20093;-80
2022/05/18 04:12:23;;;;;;;6.57;3.72;;;15.50;99.90;;;;;;5130115;27;20086;-82
2022/05/18 04:14:51;;;;;;;7.25;3.72;;;15.60;99.90;;;;;;5143868;27;20126;-80
2022/05/18 04:17:17;;;;;;;6.88;3.90;;;15.60;99.90;;;;;;5096150;27;20058;-81
2022/05/18 04:19:42;;;;;;;8.80;3.97;;;15.60;99.90;;;;;;5095645;27;20281;-80
2022/05/18 04:22:08;;;;;;;7.50;3.90;;;15.60;99.90;;;;;;5131000;27;20053;-81
2022/05/18 04:24:34;;;;;;;8.70;3.85;;;15.50;99.90;;;;;;5108296;28;20043;-81
2022/05/18 04:26:59;;;;;;;6.47;3.80;;;15.50;99.90;;;;;;5100728;27;20083;-81
2022/05/18 04:29:25;;;;;;;8.10;3.80;;;15.50;99.90;;;;;;5111869;27;20129;-83
2022/05/18 04:31:51;;;;;;;9.13;3.90;;;15.60;99.90;;;;;;5112907;27;20050;-81
2022/05/18 04:34:17;;;;;;;8.70;4.22;;;15.60;99.90;;;;;;5109183;28;20077;-81
2022/05/18 04:36:43;;;;;;;;;;;15.60;99.90;;;;;;5119989;27;20061;-81
2022/05/18 04:39:08;;;;;;;5.95;3.75;;;15.60;99.90;;;;;;5109385;28;19920;-80
2022/05/18 04:41:34;;;;;;;9.82;4.40;;;15.70;99.90;;;;;;5100499;27;20134;-80
2022/05/18 04:44:00;;;;;;;8.20;4.18;;;15.70;99.90;;;;;;5114165;27;20046;-80
2022/05/18 04:46:25;;;;;;;9.35;3.92;;;15.70;99.90;;;;;;5113398;27;20067;-82
2022/05/18 04:48:51;;;;;;;10.45;4.05;;;15.70;99.90;;;;;;5112482;27;20047;-81
2022/05/18 04:51:17;;;;;;;8.10;4.30;;;15.80;99.90;;;;;;5130024;27;20161;-81
2022/05/18 04:53:42;;;;;;;8.55;4.50;;;15.80;99.90;;;;;;5111959;28;20514;-81
2022/05/18 04:56:08;;;;;;;9.45;4.80;;;15.80;99.90;;;;;;5129924;27;20073;-82
2022/05/18 04:58:34;;;;;;;9.35;4.68;;;15.90;99.90;;;;;;5111516;27;20117;-81
2022/05/18 05:01:06;;;;;;;7.45;4.40;;;15.90;99.90;;;;;;5112127;27;20369;-81
2022/05/18 05:03:32;;;;;;;9.95;4.80;;;15.90;99.90;;;;;;5111740;27;20130;-81
2022/05/18 05:05:57;;;;;;;9.82;4.97;;;16.00;99.90;;;;;;5111736;27;20130;-81
2022/05/18 05:08:23;;;;;;;8.43;5.03;;;16.00;99.90;;;;;;5095132;27;20547;-82
2022/05/18 05:10:49;;;;;;;8.25;4.35;;;16.10;99.90;;;;;;5110869;27;20047;-81
2022/05/18 05:13:15;;;;;;;9.63;4.68;;;16.10;99.90;;;;;;5129594;27;20043;-81
2022/05/18 05:15:41;;;;;;;;;;;16.10;99.90;;;;;;5103794;28;20450;-82
2022/05/18 05:18:07;;;;;;;8.82;4.90;;;16.20;99.90;;;;;;5105587;27;19931;-82
2022/05/18 05:20:32;;;;;;;12.77;5.85;;;16.20;99.90;;;;;;5091092;28;20081;-82
2022/05/18 05:22:58;;;;;;;14.18;5.20;;;16.20;99.90;;;;;;5121250;27;20051;-82
2022/05/18 05:25:24;;;;;;;9.07;5.35;;;16.30;99.90;;;;;;5111860;28;20621;-82
2022/05/18 05:27:49;;;;;;;8.68;5.15;;;16.30;99.90;;;;;;5138253;27;20119;-82
2022/05/18 05:30:15;;;;;;;;;;;16.40;99.90;;;;;;5133277;27;20078;-82
2022/05/18 05:32:41;;;;;;;14.43;5.63;;;16.40;99.90;;;;;;5123851;28;19923;-82
2022/05/18 05:35:08;;;;;;;;;;;16.40;99.90;;;;;;5095344;28;20053;-82
2022/05/18 05:37:34;;;;;;;10.00;5.45;;;16.50;99.90;;;;;;5093789;28;19923;-82
2022/05/18 05:39:59;;;;;;;10.20;6.05;;;16.50;99.90;;;;;;5127996;27;20058;-82
2022/05/18 05:42:25;;;;;;;;;;;16.60;99.90;;;;;;5132058;27;20119;-82
2022/05/18 05:44:51;;;;;;;9.50;4.88;;;16.60;99.90;;;;;;5110978;28;19919;-82
2022/05/18 05:47:17;;;;;;;;;;;16.70;99.90;;;;;;5091070;28;20083;-81
2022/05/18 05:49:42;;;;;;;11.32;4.97;;;16.70;99.90;;;;;;5091240;28;20011;-82
2022/05/18 05:52:09;;;;;;;;;;;16.80;99.90;;;;;;5114509;27;20488;-82
2022/05/18 05:54:35;;;;;;;10.68;5.70;;;16.80;99.90;;;;;;5131757;27;19923;-81
2022/05/18 05:57:04;;;;;;;10.52;5.20;;;16.90;99.90;;;;;;5131400;27;20167;-82
2022/05/18 05:59:35;;;;;;;10.57;5.53;;;16.90;99.90;;;;;;5116887;28;20076;-82
2022/05/18 06:02:02;;;;;;;11.65;5.28;;;17.00;99.90;;;;;;5108902;27;20051;-81
2022/05/18 06:04:32;;;;;;;10.55;5.13;;;17.10;99.90;;;;;;5111648;28;20040;-81
2022/05/18 06:06:57;;;;;;;9.18;4.97;;;17.10;99.90;;;;;;5102634;28;20055;-82
2022/05/18 06:09:23;;;;;;;10.55;5.35;;;17.20;99.90;;;;;;5109864;27;20081;-82
2022/05/18 06:11:50;;;;;;;9.38;5.28;;;17.30;99.90;;;;;;5116938;28;20047;-82
2022/05/18 06:14:16;;;;;;;9.95;5.72;;;17.40;99.90;;;;;;5093982;27;20031;-82
2022/05/18 06:16:42;;;;;;;10.10;5.53;;;17.40;99.90;;;;;;5120906;27;20050;-82
2022/05/18 06:19:08;;;;;;;11.18;5.40;;;17.50;99.90;;;;;;5132148;27;20042;-82
2022/05/18 06:21:34;;;;;;;9.23;4.80;;;17.60;99.90;;;;;;5119302;27;20118;-82
2022/05/18 06:24:00;;;;;;;9.98;5.40;;;17.70;99.90;;;;;;5131529;27;20278;-81
2022/05/18 06:26:26;;;;;;;;;;;17.80;99.90;;;;;;5110792;28;20058;-82
2022/05/18 06:28:53;;;;;;;10.30;4.72;;;17.80;99.90;;;;;;5106393;28;19984;-82
2022/05/18 06:31:18;;;;;;;8.68;4.93;;;18.00;99.90;;;;;;5094554;27;20396;-81
2022/05/18 06:33:44;;;;;;;9.20;4.93;;;18.10;99.90;;;;;;5114722;27;20047;-81
2022/05/18 06:36:10;;;;;;;;;;;18.20;99.90;;;;;;5118384;27;20552;-82
2022/05/18 06:38:37;;;;;;;11.02;4.93;;;18.30;99.90;;;;;;5135137;27;19930;-81
2022/05/18 06:41:21;;;;;;;9.15;4.93;;;18.30;99.90;;;;;;5116599;27;20048;-81
2022/05/18 06:43:54;;;;;;;9.75;4.40;;;18.40;99.90;;;;;;5082358;28;20040;-82
2022/05/18 06:46:21;;;;;;;9.20;4.75;;;18.60;99.90;;;;;;5105372;27;20096;-81
2022/05/18 06:48:48;;;;;;;9.18;5.03;;;18.60;99.90;;;;;;5098578;27;20078;-82
2022/05/18 06:51:23;;;;;;;7.55;4.50;;;18.70;99.90;;;;;;5113748;27;20074;-82
2022/05/18 06:53:53;;;;;;;9.20;4.55;;;18.70;99.90;;;;;;5104468;27;20051;-81
2022/05/18 06:56:24;;;;;;;9.52;4.40;;;18.80;99.90;;;;;;5134192;27;20054;-81
2022/05/18 06:58:51;;;;;;;6.82;3.70;;;18.90;99.90;;;;;;5115179;27;20058;-82
2022/05/18 07:01:18;;;;;;;8.98;4.70;;;19.00;99.90;;;;;;5094212;28;20488;-81
2022/05/18 07:03:44;;;;;;;9.30;4.55;;;19.10;99.90;;;;;;5109853;27;20082;-80
2022/05/18 07:06:12;;;;;;;10.52;4.18;;;19.30;99.90;;;;;;5122161;27;20118;-80
2022/05/18 07:08:38;;;;;;;8.93;3.80;;;19.40;99.90;;;;;;5112269;27;20036;-81
2022/05/18 07:11:04;;;;;;;6.65;3.92;;;19.50;99.90;;;;;;5113864;27;20050;-81
2022/05/18 07:13:33;;;;;;;;;;;19.60;99.90;;;;;;5096346;27;20039;-82
2022/05/18 07:16:00;;;;;;;7.30;4.13;;;19.70;99.90;;;;;;5109973;27;19968;-82
2022/05/18 07:18:29;;;;;;;8.02;4.40;;;19.70;99.90;;;;;;5114482;27;20047;-81
2022/05/18 07:20:59;;;;;;;9.10;3.67;;;19.70;99.90;;;;;;5094156;27;20054;-82
2022/05/18 07:23:26;;;;;;;6.57;3.70;;;19.80;99.90;;;;;;5109700;27;20388;-81
2022/05/18 07:25:53;;;;;;;8.27;4.43;;;19.90;99.90;;;;;;5108067;28;20062;-81
2022/05/18 07:28:19;;;;;;;9.05;4.38;;;20.00;99.90;;;;;;5107428;28;20075;-81
2022/05/18 07:30:44;;;;;;;;;;;20.10;99.90;;;;;;5112901;27;20074;-82
2022/05/18 07:33:10;;;;;;;6.43;3.53;;;20.20;99.90;;;;;;5115326;27;19931;-81
2022/05/18 07:35:36;;;;;;;;;;;20.20;99.90;;;;;;5111306;28;20040;-81
2022/05/18 07:38:02;;;;;;;8.55;4.22;;;20.30;99.90;;;;;;5109874;28;19920;-81
2022/05/18 07:40:28;;;;;;;;;;;20.40;99.90;;;;;;5092659;27;20180;-80
2022/05/18 07:42:56;;;;;;;7.88;4.13;;;20.40;99.90;;;;;;5105990;28;19924;-81
2022/05/18 07:45:23;;;;;;;7.07;3.80;;;20.40;99.90;;;;;;5111023;27;20056;-78
2022/05/18 07:47:52;;;;;;;9.10;4.18;;;20.50;99.90;;;;;;5108175;28;20480;-81
2022/05/18 07:50:19;;;;;;;7.07;3.90;;;20.60;99.90;;;;;;5106765;28;20044;-81
2022/05/18 07:52:44;;;;;;;8.65;4.40;;;20.70;99.90;;;;;;5107716;27;20409;-81
2022/05/18 07:55:10;;;;;;;;;;;20.80;99.90;;;;;;5110259;27;20052;-80
2022/05/18 07:57:36;;;;;;;11.77;4.38;;;20.90;99.90;;;;;;5107932;28;19920;-81
2022/05/18 08:00:03;;;;;;;13.93;3.83;;;21.00;99.90;;;;;;5097744;27;20047;-80
2022/05/18 08:02:30;;;;;;;7.93;4.50;;;21.00;99.90;;;;;;5108680;28;20134;-80
2022/05/18 08:04:56;;;;;;;8.35;4.25;;;21.10;99.90;;;;;;5113179;27;20473;-80
2022/05/18 08:07:22;;;;;;;;;;;21.20;99.90;;;;;;5109204;27;20039;-80
2022/05/18 08:15:16;;;;;;;10.45;4.55;;;21.60;99.90;;;;;;5105247;28;20084;-81
2022/05/18 08:17:43;;;;;;;7.20;4.13;;;21.70;99.90;;;;;;5110166;28;20055;-81
2022/05/18 08:20:13;;;;;;;8.40;3.95;;;21.80;99.90;;;;;;5110310;28;20080;-81
2022/05/18 08:22:42;;;;;;;6.35;3.90;;;21.80;99.90;;;;;;5121650;27;20119;-80
2022/05/18 08:25:09;;;;;;;6.93;4.10;;;21.90;99.90;;;;;;5130950;27;20059;-80
2022/05/18 08:27:46;;;;;;;8.18;4.13;;;22.00;99.90;;;;;;5130074;27;20059;-80
2022/05/18 08:30:13;;;;;;;;;;;22.10;99.90;;;;;;5128304;27;20050;-80
2022/05/18 08:32:39;;;;;;;8.25;3.72;;;22.20;99.90;;;;;;5108890;27;20361;-80
2022/05/18 08:35:05;;;;;;;;;;;22.30;99.90;;;;;;5107109;28;20044;-80
2022/05/18 08:37:38;;;;;;;7.93;4.07;;;22.30;99.90;;;;;;5104247;28;19923;-80
2022/05/18 08:40:04;;;;;;;6.32;4.10;;;22.50;99.90;;;;;;5111046;28;20055;-81
2022/05/18 08:42:30;;;;;;;9.10;4.22;;;22.50;99.90;;;;;;5109229;28;20048;-81
2022/05/18 08:44:56;;;;;;;;;;;22.60;99.90;;;;;;5107006;28;20366;-80
2022/05/18 08:47:27;;;;;;;8.57;4.03;;;22.60;99.90;;;;;;5100889;28;20012;-80
2022/05/18 08:50:17;;;;;;;6.85;3.70;;;22.70;99.90;;;;;;5089574;28;20632;-80
2022/05/18 08:53:16;;;;;;;7.72;3.15;;;22.80;99.90;;;;;;5099273;27;20096;-81
2022/05/18 08:56:19;;;;;;;7.70;3.53;;;22.80;99.90;;;;;;5080718;28;20091;-83
2022/05/18 08:58:50;;;;;;;6.82;2.95;;;23.00;99.90;;;;;;5117455;27;20055;-80
2022/05/18 09:01:40;;;;;;;10.90;3.20;;;23.10;99.90;;;;;;5112752;27;20081;-80
2022/05/18 09:04:11;;;;;;;6.47;3.00;;;23.30;99.90;;;;;;5115343;27;20223;-80
2022/05/18 09:06:42;;;;;;;5.20;2.95;;;23.40;99.90;;;;;;5106343;28;20147;-80
2022/05/18 09:12:08;;;;;;;7.95;3.17;;;23.60;99.90;;;;;;5113481;27;20051;-81
2022/05/18 09:14:39;;;;;;;5.97;3.15;;;23.70;99.90;;;;;;5127152;27;20043;-80
2022/05/18 09:17:25;;;;;;;6.57;3.33;;;23.80;99.90;;;;;;5108071;27;20077;-80
2022/05/18 09:20:20;;;;;;;8.68;3.90;;;23.80;99.90;;;;;;5089538;28;20052;-80
2022/05/18 09:22:58;;;;;;;7.55;3.35;;;23.80;99.90;;;;;;5123107;27;20059;-80
2022/05/18 09:25:29;;;;;;;6.68;3.33;;;23.90;99.90;;;;;;5123401;27;20110;-80
2022/05/18 09:27:58;;;;;;;5.25;3.28;;;24.00;99.90;;;;;;5097131;28;20096;-80
2022/05/18 09:30:39;;;;;;;6.97;3.63;;;24.10;99.90;;;;;;5109038;28;20454;-81
2022/05/18 09:33:12;;;;;;;7.95;3.70;;;24.20;99.90;;;;;;5119226;28;20104;-81
2022/05/18 09:36:35;;;;;;;6.80;4.22;;;24.30;99.90;;;;;;5130361;28;20518;-83
2022/05/18 09:39:10;;;;;;;7.30;3.97;;;24.30;99.90;;;;;;5030749;28;20136;-81
2022/05/18 09:41:56;;;;;;;5.47;3.17;;;24.30;99.90;;;;;;5024204;28;20049;-81
2022/05/18 09:44:56;;;;;;;7.32;4.00;;;24.30;99.90;;;;;;5061720;28;20189;-82
2022/05/18 09:47:26;;;;;;;7.63;4.07;;;24.30;99.90;;;;;;5116153;28;20031;-81
2022/05/18 09:49:59;;;;;;;7.45;4.20;;;24.30;99.90;;;;;;5108821;28;20047;-82
2022/05/18 09:52:27;;;;;;;8.52;4.03;;;24.40;99.90;;;;;;5111534;28;20716;-81
2022/05/18 09:54:56;;;;;;;6.85;3.97;;;24.50;99.90;;;;;;5114147;28;20040;-82
2022/05/18 09:57:25;;;;;;;6.72;4.20;;;24.50;99.90;;;;;;5128881;28;20050;-82
2022/05/18 09:59:58;;;;;;;10.68;3.47;;;24.50;99.90;;;;;;5107120;28;20382;-82
2022/05/18 10:08:05;;;;;;;5.43;2.80;;;24.80;99.90;;;;;;5097847;28;20056;-81
2022/05/18 10:10:36;;;;;;;7.72;3.22;;;24.90;99.90;;;;;;5113298;28;20047;-82
2022/05/18 10:13:05;;;;;;;5.75;3.67;;;25.00;98.60;;;;;;5113470;27;20079;-81
2022/05/18 10:15:44;;;;;;;6.82;3.53;;;25.00;96.90;;;;;;5111842;28;20051;-82
2022/05/18 10:18:36;;;;;;;9.68;3.42;;;25.10;97.00;;;;;;5113173;28;20098;-82
2022/05/18 10:21:09;;;;;;;7.80;2.80;;;25.20;96.50;;;;;;5124199;27;20054;-81
2022/05/18 10:23:55;;;;;;;5.93;3.10;;;25.30;96.70;;;;;;5123510;27;20047;-82
2022/05/18 10:26:41;;;;;;;8.52;2.97;;;25.50;95.80;;;;;;5117892;27;20089;-81
2022/05/18 10:29:21;;;;;;;6.45;2.90;;;25.60;96.70;;;;;;5125786;27;20138;-82
2022/05/18 10:32:31;;;;;;;5.53;3.40;;;25.70;97.90;;;;;;5124312;27;20055;-81
2022/05/18 10:34:59;;;;;;;5.72;3.00;;;25.90;97.40;;;;;;5097911;27;20582;-81
2022/05/18 10:37:27;;;;;;;5.82;3.25;;;25.90;94.10;;;;;;5107203;27;20058;-81
2022/05/18 10:40:15;;;;;;;6.70;3.35;;;26.10;94.70;;;;;;5116485;27;20062;-82
2022/05/18 10:42:51;;;;;;;5.65;3.05;;;26.10;94.70;;;;;;5111624;28;20110;-81
2022/05/18 10:45:26;;;;;;;6.25;3.50;;;26.00;94.90;;;;;;5112416;28;20547;-81
2022/05/18 10:47:57;;;;;;;6.13;2.85;;;26.10;94.70;;;;;;5113062;28;20055;-81
2022/05/18 10:50:37;;;;;;;5.15;2.78;;;26.10;92.40;;;;;;5113071;28;20051;-81
2022/05/18 10:53:12;;;;;;;5.50;3.15;;;26.10;85.80;;;;;;5113627;27;20059;-82
2022/05/18 10:55:54;;;;;;;5.80;2.78;;;26.20;86.60;;;;;;5102236;28;20051;-81
2022/05/18 10:58:25;;;;;;;7.43;3.22;;;26.30;89.10;;;;;;5092220;28;20084;-82
2022/05/18 11:00:58;;;;;;;5.97;3.13;;;26.50;86.00;;;;;;5097262;27;20464;-82
2022/05/18 11:03:41;;;;;;;6.65;3.53;;;26.60;85.10;;;;;;5116965;27;20494;-81
2022/05/18 11:06:13;;;;;;;6.03;3.58;;;26.60;83.30;;;;;;5091355;28;20051;-81
2022/05/18 11:08:39;;;;;;;6.78;3.70;;;26.50;82.50;;;;;;5092343;28;20059;-82
2022/05/18 11:11:17;;;;;;;6.53;3.33;;;26.50;83.40;;;;;;5090741;28;20048;-82
2022/05/18 11:13:52;;;;;;;5.68;2.90;;;26.60;85.00;;;;;;5091634;28;20043;-81
2022/05/18 11:16:21;;;;;;;5.85;3.38;;;26.70;83.30;;;;;;5112019;27;20051;-81
2022/05/18 11:19:02;;;;;;;11.57;3.25;;;26.80;83.50;;;;;;5129602;27;20160;-81
2022/05/18 11:21:34;;;;;;;7.60;3.50;;;27.00;84.60;;;;;;5121357;27;20084;-82
2022/05/18 11:24:28;;;;;;;9.32;4.13;;;27.00;83.50;;;;;;5112726;27;20044;-82
2022/05/18 11:27:08;;;;;;;7.90;3.85;;;27.10;82.00;;;;;;5101252;27;20055;-81
2022/05/18 11:29:43;;;;;;;6.25;3.47;;;27.10;79.50;;;;;;5132414;27;20667;-81
2022/05/18 11:32:27;;;;;;;8.35;3.67;;;27.20;80.80;;;;;;5132130;27;20054;-79
2022/05/18 11:35:30;;;;;;;6.93;3.63;;;27.30;80.00;;;;;;5127319;27;20430;-81
2022/05/18 11:38:15;;;;;;;8.10;3.65;;;27.40;81.30;;;;;;5119635;27;20096;-82
2022/05/18 11:40:49;;;;;;;8.10;4.40;;;27.40;79.20;;;;;;5131351;27;20051;-82
2022/05/18 11:43:30;;;;;;;8.00;3.85;;;27.50;77.70;;;;;;5131478;27;20080;-81
2022/05/18 11:46:02;;;;;;;7.28;4.03;;;27.60;76.40;;;;;;5132442;27;20062;-82
2022/05/18 11:49:14;;;;;;;7.38;3.28;;;27.70;76.70;;;;;;5132624;27;20540;-81
2022/05/18 11:51:48;;;;;;;7.90;3.85;;;27.80;75.40;;;;;;5126929;27;20086;-81
2022/05/18 11:54:39;;;;;;;7.22;3.67;;;27.90;74.40;;;;;;5096626;28;20067;-82
2022/05/18 11:57:35;;;;;;;6.03;3.40;;;28.00;74.90;;;;;;5102163;28;20134;-82
2022/05/18 12:00:15;;;;;;;6.63;3.58;;;28.20;72.50;;;;;;5091343;28;20043;-83
2022/05/18 12:03:10;;;;;;;7.50;3.28;;;28.40;69.60;;;;;;5091103;28;20052;-82
2022/05/18 12:05:54;;;;;;;7.05;3.67;;;28.40;69.30;;;;;;5090945;28;20473;-81
2022/05/18 12:08:36;;;;;;;6.05;3.63;;;28.70;71.20;;;;;;5090502;28;20149;-81
2022/05/18 12:11:29;;;;;;;6.35;3.20;;;29.00;70.70;;;;;;5089664;28;20055;-82
2022/05/18 12:14:23;;;;;;;5.70;3.20;;;29.20;70.40;;;;;;5090390;28;20085;-81
2022/05/18 12:17:04;;;;;;;8.15;3.17;;;29.70;69.80;;;;;;5095378;28;20148;-81
2022/05/18 12:19:37;;;;;;;6.20;2.80;;;30.00;70.00;;;;;;5093536;28;20048;-81
2022/05/18 12:22:09;;;;;;;6.28;2.85;;;30.30;69.30;;;;;;5109806;28;20047;-81
2022/05/18 12:24:39;;;;;;;5.07;2.70;;;30.40;66.60;;;;;;5111430;27;20047;-80
2022/05/18 12:27:07;;;;;;;5.90;2.78;;;30.60;65.00;;;;;;5113471;27;20069;-81
2022/05/18 12:29:33;;;;;;;5.57;2.78;;;30.80;63.80;;;;;;5113116;27;20054;-81
2022/05/18 12:31:59;;;;;;;7.95;2.58;;;30.90;64.00;;;;;;5114278;27;20107;-82
2022/05/18 12:34:34;;;;;;;6.00;2.67;;;31.10;61.00;;;;;;5132146;27;20114;-81
2022/05/18 12:37:15;;;;;;;7.80;2.70;;;31.20;61.10;;;;;;5109402;28;20061;-81
2022/05/18 12:39:48;;;;;;;7.88;2.90;;;31.40;61.20;;;;;;5105083;27;20130;-81
2022/05/18 12:42:23;;;;;;;7.30;2.92;;;31.50;59.20;;;;;;5112505;27;20085;-82
2022/05/18 12:45:01;;;;;;;11.20;3.60;;;31.30;59.10;;;;;;5113370;27;20082;-81
2022/05/18 12:47:52;;;;;;;7.75;3.15;;;31.20;60.10;;;;;;5113700;27;20051;-82
2022/05/18 12:50:34;;;;;;;5.90;3.47;;;31.20;59.20;;;;;;5113603;27;20055;-81
2022/05/18 12:53:03;;;;;;;6.35;3.08;;;31.60;58.70;;;;;;5113133;27;20071;-82
2022/05/18 12:55:31;;;;;;;6.13;3.10;;;31.90;56.90;;;;;;5096041;27;20035;-83
2022/05/18 12:58:29;;;;;;;5.18;2.78;;;31.90;57.00;;;;;;5106084;28;20530;-82
2022/05/18 13:01:09;;;;;;;4.65;2.70;;;32.20;58.40;;;;;;5111511;28;20086;-81
2022/05/18 13:03:52;;;;;;;6.15;2.78;;;32.60;58.10;;;;;;5111259;28;20549;-82
2022/05/18 13:06:35;;;;;;;6.28;3.72;;;32.80;57.70;;;;;;5092427;28;20043;-82
2022/05/18 13:09:29;;;;;;;8.93;3.58;;;32.90;55.30;;;;;;5093255;28;20051;-82
2022/05/18 13:12:24;;;;;;;7.93;3.88;;;32.50;54.50;;;;;;5092489;28;20051;-81
2022/05/18 13:14:56;;;;;;;7.07;4.10;;;32.00;56.10;;;;;;5092935;28;20055;-82
2022/05/18 13:17:23;;;;;;;8.23;4.20;;;31.60;56.50;;;;;;5094684;28;20074;-81
2022/05/18 13:20:02;;;;;;;9.48;4.63;;;31.40;57.40;;;;;;5102133;28;20080;-81
2022/05/18 13:22:45;;;;;;;8.32;4.35;;;31.20;57.70;;;;;;5109866;28;20054;-81
2022/05/18 13:25:11;;;;;;;6.22;3.38;;;31.00;57.60;;;;;;5090509;28;20517;-81
2022/05/18 13:27:37;;;;;;;5.68;3.20;;;30.80;57.20;;;;;;5119035;28;20059;-81
2022/05/18 13:30:29;;;;;;;5.97;3.53;;;30.60;56.80;;;;;;5113532;27;20047;-81
2022/05/18 13:32:55;;;;;;;5.20;3.03;;;30.60;58.00;;;;;;5106359;28;20102;-81
2022/05/18 13:35:26;;;;;;;6.82;3.47;;;30.70;57.50;;;;;;5095417;28;20079;-81
2022/05/18 13:37:59;;;;;;;4.43;2.65;;;30.90;57.20;;;;;;5104213;28;20075;-82
2022/05/18 13:40:26;;;;;;;4.65;2.38;;;31.10;57.00;;;;;;5107872;27;20048;-83
2022/05/18 13:42:51;;;;;;;11.00;4.57;;;31.40;56.30;;;;;;5112717;28;20047;-81
2022/05/18 13:45:17;;;;;;;10.02;5.82;;;31.60;56.70;;;;;;5129878;27;20054;-82
2022/05/18 13:47:47;;;;;;;11.35;6.60;;;31.50;58.50;;;;;;5133751;27;20074;-82
2022/05/18 13:50:27;;;;;;;12.77;7.10;;;31.30;59.40;;;;;;5117488;27;20679;-83
2022/05/18 13:52:58;;;;;;;12.40;6.90;;;31.20;60.20;;;;;;5133605;27;20092;-82
2022/05/18 13:55:25;;;;;;;13.20;6.82;;;30.90;60.30;;;;;;5134278;27;20054;-83
2022/05/18 13:58:07;;;;;;;12.27;6.68;;;30.60;60.80;;;;;;5123000;27;20043;-82